createdAt,value
2023-02-03T00:01:23.782Z,98264.59
2023-02-03T00:04:26.665Z,98273.33
2023-02-03T00:07:29.954Z,98279.98
2023-02-03T00:10:35.324Z,98285.09
2023-02-03T00:13:38.402Z,98287.19
2023-02-03T00:16:41.466Z,98288.33
2023-02-03T00:19:44.489Z,98287.14
2023-02-03T00:22:47.480Z,98287.98
2023-02-03T00:25:50.809Z,98287.61
2023-02-03T00:28:54.199Z,98280.65
2023-02-03T00:31:59.166Z,98280.56
2023-02-03T00:35:02.790Z,98290.77
2023-02-03T00:38:05.773Z,98297.64
2023-02-03T00:41:08.830Z,98304.92
2023-02-03T00:44:11.919Z,98305.60
2023-02-03T00:47:14.917Z,98313.16
2023-02-03T00:50:17.950Z,98310.52
2023-02-03T00:53:20.840Z,98304.50
2023-02-03T00:56:23.819Z,98302.27
2023-02-03T00:59:27.017Z,98300.53
2023-02-03T01:02:30.345Z,98298.95
2023-02-03T01:05:33.374Z,98294.78
2023-02-03T01:08:36.399Z,98296.57
2023-02-03T01:11:39.391Z,98291.99
2023-02-03T01:14:42.369Z,98288.25
2023-02-03T01:17:45.438Z,98290.29
2023-02-03T01:20:48.412Z,98290.98
2023-02-03T01:23:52.609Z,98287.02
2023-02-03T01:26:55.572Z,98283.09
2023-02-03T01:29:58.538Z,98281.85
2023-02-03T01:33:01.570Z,98278.24
2023-02-03T01:36:04.603Z,98281.66
2023-02-03T01:39:08.337Z,98285.14
2023-02-03T01:42:16.138Z,98287.29
2023-02-03T01:45:19.687Z,98286.88
2023-02-03T01:48:22.803Z,98282.53
2023-02-03T01:51:26.176Z,98282.00
2023-02-03T01:54:37.685Z,98275.16
2023-02-03T01:57:52.720Z,98274.23
2023-02-03T02:00:57.779Z,98268.50
2023-02-03T02:04:03.179Z,98271.25
2023-02-03T02:07:07.142Z,98260.25
2023-02-03T02:10:11.199Z,98261.15
2023-02-03T02:13:17.934Z,98263.41
2023-02-03T02:17:05.691Z,98259.88
2023-02-03T02:20:24.548Z,98250.36
2023-02-03T02:23:53.622Z,98246.77
2023-02-03T02:26:59.666Z,98242.95
2023-02-03T02:30:24.419Z,98237.86
2023-02-03T02:33:42.920Z,98234.36
2023-02-03T02:37:07.402Z,98236.83
2023-02-03T02:40:24.139Z,98243.44
2023-02-03T02:43:40.123Z,98243.27
2023-02-03T02:47:02.201Z,98238.09
2023-02-03T02:50:09.016Z,98227.27
2023-02-03T02:53:15.220Z,98215.02
2023-02-03T02:56:19.795Z,98212.25
2023-02-03T02:59:22.823Z,98200.35
2023-02-03T03:02:34.066Z,98200.36
2023-02-03T03:05:37.350Z,98196.98
2023-02-03T03:08:52.791Z,98198.95
2023-02-03T03:12:05.165Z,98197.02
2023-02-03T03:15:14.748Z,98189.98
2023-02-03T03:18:31.499Z,98195.35
2023-02-03T03:21:46.316Z,98209.81
2023-02-03T03:24:55.565Z,98217.46
2023-02-03T03:28:06.112Z,98217.98
2023-02-03T03:31:09.187Z,98218.00
2023-02-03T03:34:14.257Z,98224.52
2023-02-03T03:37:46.541Z,98232.88
2023-02-03T03:40:57.758Z,98235.83
2023-02-03T03:44:06.572Z,98226.99
2023-02-03T03:47:17.873Z,98220.37
2023-02-03T03:50:29.556Z,98211.50
2023-02-03T03:53:37.021Z,98204.30
2023-02-03T03:56:58.162Z,98191.61
2023-02-03T04:00:04.322Z,98190.65
2023-02-03T04:03:21.044Z,98180.63
2023-02-03T04:06:24.207Z,98174.39
2023-02-03T04:09:27.197Z,98164.45
2023-02-03T04:12:30.165Z,98160.19
2023-02-03T04:15:34.402Z,98159.06
2023-02-03T04:18:37.500Z,98156.86
2023-02-03T04:21:40.388Z,98146.08
2023-02-03T04:24:43.474Z,98143.73
2023-02-03T04:27:46.740Z,98139.01
2023-02-03T04:30:49.806Z,98130.32
2023-02-03T04:33:52.802Z,98117.63
2023-02-03T04:36:55.780Z,98116.05
2023-02-03T04:39:58.893Z,98113.79
2023-02-03T04:43:07.912Z,98106.33
2023-02-03T04:46:11.325Z,98098.25
2023-02-03T04:49:14.317Z,98097.28
2023-02-03T04:52:17.375Z,98094.17
2023-02-03T04:55:20.382Z,98092.55
2023-02-03T04:58:23.732Z,98089.80
2023-02-03T05:01:26.770Z,98086.02
2023-02-03T05:04:29.954Z,98079.65
2023-02-03T05:07:32.929Z,98076.14
2023-02-03T05:10:35.956Z,98072.73
2023-02-03T05:13:38.852Z,98079.83
2023-02-03T05:16:41.938Z,98074.77
2023-02-03T05:19:45.212Z,98065.81
2023-02-03T05:22:48.349Z,98061.46
2023-02-03T05:25:51.380Z,98060.39
2023-02-03T05:28:56.616Z,98052.06
2023-02-03T05:32:00.433Z,98042.64
2023-02-03T05:35:03.476Z,98033.61
2023-02-03T05:38:06.697Z,98022.84
2023-02-03T05:41:30.723Z,98021.52
2023-02-03T05:44:33.780Z,98023.50
2023-02-03T05:47:36.821Z,98026.09
2023-02-03T05:50:39.825Z,98018.17
2023-02-03T05:53:42.926Z,98017.10
2023-02-03T05:56:45.854Z,98008.24
2023-02-03T05:59:49.906Z,98002.55
2023-02-03T06:02:58.489Z,97998.59
2023-02-03T06:06:01.634Z,97998.81
2023-02-03T06:09:06.905Z,97997.45
2023-02-03T06:12:09.768Z,97992.89
2023-02-03T06:15:13.186Z,97985.90
2023-02-03T06:18:16.101Z,97981.70
2023-02-03T06:21:20.452Z,97986.77
2023-02-03T06:24:23.258Z,97985.41
2023-02-03T06:27:26.487Z,97981.88
2023-02-03T06:30:29.880Z,97982.75
2023-02-03T06:33:33.389Z,97979.82
2023-02-03T06:36:36.387Z,97979.83
2023-02-03T06:39:39.361Z,97975.27
2023-02-03T06:42:46.156Z,97973.02
2023-02-03T06:45:49.141Z,97961.29
2023-02-03T06:48:52.121Z,97961.80
2023-02-03T06:51:55.238Z,97955.96
2023-02-03T06:54:58.156Z,97951.11
2023-02-03T06:58:01.161Z,97944.77
2023-02-03T07:01:04.329Z,97936.95
2023-02-03T07:04:07.224Z,97929.88
2023-02-03T07:07:10.042Z,97925.64
2023-02-03T07:10:12.920Z,97918.80
2023-02-03T07:13:15.715Z,97911.05
2023-02-03T07:16:18.730Z,97905.30
2023-02-03T07:19:21.609Z,97901.61
2023-02-03T07:22:24.471Z,97902.86
2023-02-03T07:25:27.589Z,97903.41
2023-02-03T07:28:35.208Z,97906.65
2023-02-03T07:31:38.626Z,97901.80
2023-02-03T07:34:41.616Z,97898.09
2023-02-03T07:37:44.910Z,97898.39
2023-02-03T07:40:47.803Z,97897.00
2023-02-03T07:43:50.692Z,97902.50
2023-02-03T07:46:53.554Z,97902.24
2023-02-03T07:49:56.486Z,97898.33
2023-02-03T07:53:00.225Z,97897.34
2023-02-03T07:56:05.362Z,97896.60
2023-02-03T07:59:08.543Z,97890.84
2023-02-03T08:02:14.105Z,97879.71
2023-02-03T08:05:18.587Z,97875.87
2023-02-03T08:08:21.394Z,97868.23
2023-02-03T08:11:24.202Z,97867.55
2023-02-03T08:14:27.080Z,97861.06
2023-02-03T08:17:29.911Z,97854.34
2023-02-03T08:20:32.713Z,97858.25
2023-02-03T08:23:35.590Z,97847.25
2023-02-03T08:26:38.991Z,97838.61
2023-02-03T08:29:41.946Z,97832.87
2023-02-03T08:32:44.804Z,97830.98
2023-02-03T08:35:49.978Z,97828.80
2023-02-03T08:38:52.942Z,97819.23
2023-02-03T08:41:55.734Z,97810.54
2023-02-03T08:44:59.015Z,97803.70
2023-02-03T08:48:01.967Z,97796.73
2023-02-03T08:51:16.061Z,97786.55
2023-02-03T08:54:19.471Z,97781.49
2023-02-03T08:57:22.321Z,97772.11
2023-02-03T09:00:25.495Z,97766.56
2023-02-03T09:03:28.531Z,97752.35
2023-02-03T09:06:31.533Z,97749.17
2023-02-03T09:09:37.030Z,97746.63
2023-02-03T09:12:39.948Z,97741.64
2023-02-03T09:15:42.752Z,97743.29
2023-02-03T09:18:46.524Z,97730.58
2023-02-03T09:21:49.746Z,97718.49
2023-02-03T09:24:52.707Z,97718.15
2023-02-03T09:27:55.711Z,97708.58
2023-02-03T09:31:03.485Z,97701.27
2023-02-03T09:34:06.394Z,97687.02
2023-02-03T09:37:09.266Z,97674.87
2023-02-03T09:40:31.103Z,97666.45
2023-02-03T09:43:46.882Z,97651.35
2023-02-03T09:46:55.563Z,97640.21
2023-02-03T09:50:01.959Z,97637.34
2023-02-03T09:53:08.112Z,97624.14
2023-02-03T09:56:36.347Z,97607.70
2023-02-03T09:59:40.986Z,97593.90
2023-02-03T10:02:55.811Z,97584.90
2023-02-03T10:06:31.824Z,97580.23
2023-02-03T10:09:56.253Z,97572.11
2023-02-03T10:13:10.226Z,97553.52
2023-02-03T10:16:31.616Z,97541.19
2023-02-03T10:19:44.575Z,97529.05
2023-02-03T10:22:58.779Z,97526.52
2023-02-03T10:26:09.591Z,97518.90
2023-02-03T10:29:37.701Z,97517.48
2023-02-03T10:32:40.489Z,97507.67
2023-02-03T10:35:49.203Z,97497.17
2023-02-03T10:39:24.569Z,97477.73
2023-02-03T10:42:50.247Z,97458.39
2023-02-03T10:45:53.293Z,97445.31
2023-02-03T10:48:57.415Z,97438.45
2023-02-03T10:52:05.069Z,97413.91
2023-02-03T10:55:30.229Z,97405.77
2023-02-03T10:58:34.600Z,97412.68
2023-02-03T11:01:44.626Z,97409.89
2023-02-03T11:04:47.608Z,97392.41
2023-02-03T11:07:52.475Z,97388.35
2023-02-03T11:11:03.255Z,97385.69
2023-02-03T11:14:09.073Z,97367.96
2023-02-03T11:17:19.294Z,97357.04
2023-02-03T11:20:26.722Z,97359.92
2023-02-03T11:23:29.992Z,97346.03
2023-02-03T11:26:42.042Z,97331.45
2023-02-03T11:29:48.775Z,97319.82
2023-02-03T11:32:53.426Z,97320.57
2023-02-03T11:35:59.232Z,97302.73
2023-02-03T11:39:30.287Z,97314.55
2023-02-03T11:42:36.074Z,97299.86
2023-02-03T11:45:48.611Z,97277.02
2023-02-03T11:49:10.435Z,97280.13
2023-02-03T11:52:22.598Z,97266.42
2023-02-03T11:55:54.866Z,97237.05
2023-02-03T11:59:33.281Z,97251.65
2023-02-03T12:02:53.532Z,97239.00
2023-02-03T12:06:07.211Z,97220.45
2023-02-03T12:09:22.906Z,97204.23
2023-02-03T12:12:56.252Z,97201.75
2023-02-03T12:16:31.991Z,97199.10
2023-02-03T12:19:59.276Z,97177.34
2023-02-03T12:23:05.111Z,97188.53
2023-02-03T12:26:18.579Z,97171.25
2023-02-03T12:29:28.473Z,97166.04
2023-02-03T12:32:38.618Z,97160.56
2023-02-03T12:35:52.134Z,97133.86
2023-02-03T12:39:09.302Z,97143.26
2023-02-03T12:42:24.527Z,97135.92
2023-02-03T12:45:35.116Z,97131.17
2023-02-03T12:48:44.280Z,97115.20
2023-02-03T12:51:52.109Z,97122.86
2023-02-03T12:55:16.325Z,97117.77
2023-02-03T12:58:37.280Z,97089.94
2023-02-03T13:01:51.274Z,97064.77
2023-02-03T13:05:01.813Z,97063.68
2023-02-03T13:08:23.600Z,97063.55
2023-02-03T13:11:48.673Z,97064.73
2023-02-03T13:15:16.250Z,97062.79
2023-02-03T13:18:34.795Z,97053.85
2023-02-03T13:21:37.801Z,97052.16
2023-02-03T13:24:50.669Z,97052.92
2023-02-03T13:28:06.465Z,97033.59
2023-02-03T13:31:43.891Z,97026.55
2023-02-03T13:35:12.979Z,97031.34
2023-02-03T13:39:02.872Z,97009.06
2023-02-03T13:42:20.408Z,96999.39
2023-02-03T13:45:39.084Z,96988.84
2023-02-03T13:48:45.855Z,96975.34
2023-02-03T13:51:48.869Z,96968.30
2023-02-03T13:54:51.944Z,96971.58
2023-02-03T13:57:55.333Z,96968.70
2023-02-03T14:01:05.493Z,96954.83
2023-02-03T14:04:28.771Z,96948.91
2023-02-03T14:07:35.204Z,96938.55
2023-02-03T14:10:38.306Z,96927.28
2023-02-03T14:13:41.364Z,96924.14
2023-02-03T14:16:51.971Z,96918.00
2023-02-03T14:19:56.401Z,96918.61
2023-02-03T14:23:05.523Z,96926.23
2023-02-03T14:26:18.131Z,96924.50
2023-02-03T14:29:25.824Z,96917.70
2023-02-03T14:32:48.356Z,96899.63
2023-02-03T14:35:51.562Z,96887.86
2023-02-03T14:38:56.649Z,96877.58
2023-02-03T14:42:02.422Z,96870.30
2023-02-03T14:45:14.599Z,96874.61
2023-02-03T14:48:33.065Z,96867.88
2023-02-03T14:51:42.214Z,96864.21
2023-02-03T14:55:34.651Z,96866.20
2023-02-03T14:58:46.071Z,96853.12
2023-02-03T15:01:49.093Z,96847.58
2023-02-03T15:05:13.136Z,96849.44
2023-02-03T15:08:42.414Z,96858.92
2023-02-03T15:11:45.503Z,96846.12
2023-02-03T15:14:48.731Z,96845.61
2023-02-03T15:17:54.417Z,96849.45
2023-02-03T15:20:57.779Z,96853.50
2023-02-03T15:24:00.850Z,96850.56
2023-02-03T15:27:03.955Z,96858.54
2023-02-03T15:30:19.574Z,96852.13
2023-02-03T15:33:24.197Z,96878.47
2023-02-03T15:36:39.796Z,96899.71
2023-02-03T15:39:54.368Z,96933.13
2023-02-03T15:43:06.604Z,96948.04
2023-02-03T15:46:19.306Z,96957.94
2023-02-03T15:49:40.373Z,96956.34
2023-02-03T15:52:46.047Z,96971.31
2023-02-03T15:55:53.412Z,97001.40
2023-02-03T15:58:59.037Z,96998.61
2023-02-03T16:02:15.228Z,97002.00
2023-02-03T16:05:32.036Z,96988.39
2023-02-03T16:08:38.807Z,96975.33
2023-02-03T16:15:05.304Z,96982.14
2023-02-03T16:18:18.282Z,96974.98
2023-02-03T16:21:34.251Z,96974.31
2023-02-03T16:24:40.652Z,96968.38
2023-02-03T16:27:45.657Z,96961.05
2023-02-03T16:31:20.013Z,96967.40
2023-02-03T16:34:41.902Z,96981.04
2023-02-03T16:38:03.467Z,96983.88
2023-02-03T16:41:35.491Z,96984.54
2023-02-03T16:44:57.204Z,96977.64
2023-02-03T16:48:19.045Z,96982.48
2023-02-03T16:51:22.034Z,96989.55
2023-02-03T16:54:25.605Z,96984.05
2023-02-03T16:57:28.547Z,96987.09
2023-02-03T17:00:31.721Z,96990.09
2023-02-03T17:03:36.306Z,96995.91
2023-02-03T17:06:40.145Z,96991.85
2023-02-03T17:09:43.082Z,96997.42
2023-02-03T17:12:46.304Z,96995.61
2023-02-03T17:15:52.891Z,96991.73
2023-02-03T17:18:55.893Z,96995.55
2023-02-03T17:21:58.966Z,97002.98
2023-02-03T17:25:02.129Z,97002.04
2023-02-03T17:28:07.237Z,97002.08
2023-02-03T17:31:19.133Z,97004.92
2023-02-03T17:34:22.446Z,97006.63
2023-02-03T17:37:25.460Z,97003.05
2023-02-03T17:53:52.634Z,97006.23
2023-02-03T17:56:55.549Z,97007.03
2023-02-03T17:59:59.596Z,97008.80
2023-02-03T18:03:02.985Z,97001.98
2023-02-03T18:06:07.392Z,97001.89
2023-02-03T18:09:10.456Z,97005.41
2023-02-03T18:12:13.880Z,97010.05
2023-02-03T18:15:16.905Z,97009.98
2023-02-03T18:18:21.626Z,97015.11
2023-02-03T18:21:26.420Z,97016.73
2023-02-03T18:24:30.686Z,97021.19
2023-02-03T18:27:33.701Z,97028.52
2023-02-03T18:30:36.840Z,97028.92
2023-02-03T18:33:40.404Z,97040.40
2023-02-03T18:36:43.544Z,97046.74
2023-02-03T18:39:47.266Z,97053.59
2023-02-03T18:42:50.254Z,97058.14
2023-02-03T18:45:53.104Z,97060.48
2023-02-03T18:48:56.687Z,97071.02
2023-02-03T18:51:59.552Z,97067.70
2023-02-03T18:55:02.667Z,97069.90
2023-02-03T18:58:05.813Z,97061.59
2023-02-03T19:01:08.897Z,97068.77
2023-02-03T19:04:11.921Z,97068.42
2023-02-03T19:07:14.927Z,97064.41
2023-02-03T19:10:18.445Z,97055.48
2023-02-03T19:13:22.067Z,97061.67
2023-02-03T19:16:25.082Z,97068.85
2023-02-03T19:19:28.279Z,97067.76
2023-02-03T19:22:32.761Z,97068.29
2023-02-03T19:25:36.515Z,97065.70
2023-02-03T19:28:40.724Z,97074.48
2023-02-03T19:31:43.976Z,97073.19
2023-02-03T19:34:47.249Z,97072.96
2023-02-03T19:37:50.354Z,97075.83
2023-02-03T19:40:53.326Z,97076.90
2023-02-03T19:43:56.729Z,97076.27
2023-02-03T19:46:59.775Z,97080.66
2023-02-03T19:50:02.768Z,97074.84
2023-02-03T19:53:08.458Z,97067.66
2023-02-03T19:56:11.622Z,97067.63
2023-02-03T19:59:14.647Z,97067.13
2023-02-03T20:02:17.783Z,97075.36
2023-02-03T20:05:21.300Z,97069.64
2023-02-03T20:08:24.456Z,97067.36
2023-02-03T20:11:28.534Z,97061.77
2023-02-03T20:14:32.976Z,97052.39
2023-02-03T20:17:36.352Z,97046.66
2023-02-03T20:20:39.409Z,97047.87
2023-02-03T20:23:42.604Z,97049.84
2023-02-03T20:26:45.966Z,97048.02
2023-02-03T20:29:49.782Z,97046.26
2023-02-03T20:32:54.950Z,97048.95
2023-02-03T20:35:58.733Z,97041.00
2023-02-03T20:39:01.936Z,97043.48
2023-02-03T20:42:19.244Z,97044.56
2023-02-03T20:45:25.003Z,97050.19
2023-02-03T20:48:28.361Z,97052.58
2023-02-03T20:51:32.302Z,97048.30
2023-02-03T20:54:35.629Z,97045.77
2023-02-03T20:57:38.669Z,97042.79
2023-02-03T21:00:42.299Z,97038.91
2023-02-03T21:04:04.041Z,97034.64
2023-02-03T21:07:14.557Z,97023.85
2023-02-03T21:10:21.153Z,97032.10
2023-02-03T21:13:26.329Z,97032.63
2023-02-03T21:16:39.658Z,97040.23
2023-02-03T21:19:42.774Z,97045.55
2023-02-03T21:22:45.788Z,97046.23
2023-02-03T21:25:49.152Z,97047.90
2023-02-03T21:28:57.680Z,97045.61
2023-02-03T21:32:00.962Z,97053.23
2023-02-03T21:35:24.563Z,97054.40
2023-02-03T21:38:33.266Z,97060.07
2023-02-03T21:41:36.591Z,97059.92
2023-02-03T21:44:40.679Z,97061.30
2023-02-03T21:47:45.581Z,97062.50
2023-02-03T21:50:48.798Z,97061.80
2023-02-03T21:53:55.395Z,97060.13
2023-02-03T21:56:58.473Z,97059.89
2023-02-03T22:00:01.492Z,97061.82
2023-02-03T22:03:08.481Z,97056.02
2023-02-03T22:06:19.675Z,97060.41
2023-02-03T22:09:25.115Z,97055.85
2023-02-03T22:12:28.034Z,97056.51
2023-02-03T22:15:31.143Z,97050.69
2023-02-03T22:18:34.209Z,97053.88
2023-02-03T22:21:37.232Z,97052.96
2023-02-03T22:24:40.109Z,97056.22
2023-02-03T22:27:43.213Z,97047.51
2023-02-03T22:30:46.339Z,97047.39
2023-02-03T22:33:49.357Z,97050.95
2023-02-03T22:36:52.292Z,97049.45
2023-02-03T22:39:55.158Z,97047.20
2023-02-03T22:42:58.169Z,97044.19
2023-02-03T22:46:04.893Z,97048.36
2023-02-03T22:49:08.104Z,97049.30
2023-02-03T22:52:11.089Z,97050.95
2023-02-03T22:55:13.959Z,97053.05
2023-02-03T22:58:16.941Z,97050.50
2023-02-03T23:01:19.904Z,97052.36
2023-02-03T23:04:23.766Z,97052.21
2023-02-03T23:07:26.801Z,97055.05
2023-02-03T23:10:33.254Z,97054.05
2023-02-03T23:13:36.287Z,97051.14
2023-02-03T23:16:39.425Z,97044.16
2023-02-03T23:19:42.457Z,97036.58
2023-02-03T23:22:45.595Z,97034.02
2023-02-03T23:25:48.489Z,97038.66
2023-02-03T23:28:51.434Z,97034.54
2023-02-03T23:31:54.351Z,97030.89
2023-02-03T23:35:15.936Z,97034.48
2023-02-03T23:38:19.114Z,97023.59
2023-02-03T23:41:21.944Z,97015.67
2023-02-03T23:44:24.892Z,97009.88
2023-02-03T23:47:27.737Z,97012.66
2023-02-03T23:50:31.074Z,97011.03
2023-02-03T23:53:34.162Z,97008.02
2023-02-03T23:56:37.061Z,97007.82
2023-02-03T23:59:40.026Z,97007.59
